Time;durP1;ratioP1;P1;durP2;ratioP2;P2;SDS_P1;SDS_P2;PMS_P1;PMS_P2;Temp;Humidity;BMP_temperature;BMP_pressure;BME280_temperature;BME280_humidity;BME280_pressure;Samples;Min_cycle;Max_cycle;Signal;HPM_P1;HPM_P2
2023/06/25 00:02:19;;;;;;;19.63;11.57;;;;;;;22.97;85.97;101884.63;5031961;28;20042;-63
2023/06/25 00:04:47;;;;;;;16.38;11.45;;;;;;;22.93;86.42;101887.22;5032863;28;20452;-64
2023/06/25 00:07:16;;;;;;;18.38;11.82;;;;;;;22.84;86.88;101880.84;5032150;28;20144;-63
2023/06/25 00:09:54;;;;;;;16.80;11.02;;;;;;;22.82;87.05;101879.53;5032293;28;20427;-62
2023/06/25 00:12:25;;;;;;;15.23;10.82;;;;;;;22.84;87.18;101878.06;5064752;28;20057;-62
2023/06/25 00:14:53;;;;;;;15.57;11.25;;;;;;;22.87;87.14;101882.16;5032095;28;20379;-64
2023/06/25 00:17:27;;;;;;;19.00;12.43;;;;;;;22.84;86.92;101878.06;5032285;28;20046;-64
2023/06/25 00:19:56;;;;;;;17.05;10.85;;;;;;;22.82;87.04;101877.56;5032869;28;20095;-62
2023/06/25 00:22:24;;;;;;;15.60;11.10;;;;;;;22.81;87.40;101877.91;5031746;28;20490;-64
2023/06/25 00:24:52;;;;;;;16.58;10.77;;;;;;;22.82;87.24;101880.34;5032374;28;20092;-62
2023/06/25 00:27:20;;;;;;;16.88;11.73;;;;;;;22.82;87.26;101874.78;5032319;28;20099;-62
2023/06/25 00:29:47;;;;;;;18.27;13.23;;;;;;;22.79;86.85;101874.66;5034469;28;20124;-64
2023/06/25 00:32:15;;;;;;;21.77;13.02;;;;;;;22.69;87.79;101881.34;5036042;28;20080;-64
2023/06/25 00:34:43;;;;;;;18.13;12.05;;;;;;;22.63;88.28;101877.06;5036493;28;20089;-64
2023/06/25 00:37:17;;;;;;;20.00;11.88;;;;;;;22.62;88.62;101864.31;5034616;28;20437;-65
2023/06/25 00:39:48;;;;;;;19.83;13.05;;;;;;;22.54;89.09;101869.53;5020390;28;20033;-63
2023/06/25 00:42:16;;;;;;;22.00;11.52;;;;;;;22.49;89.65;101869.69;5040319;28;20144;-64
2023/06/25 00:44:44;;;;;;;16.67;12.27;;;;;;;22.45;90.15;101871.47;5041744;28;20076;-63
2023/06/25 00:47:14;;;;;;;18.50;11.90;;;;;;;22.43;90.42;101868.22;5041839;28;20037;-64
2023/06/25 00:49:46;;;;;;;18.08;12.43;;;;;;;22.45;90.32;101865.94;5036644;28;20049;-64
2023/06/25 00:52:15;;;;;;;16.67;12.13;;;;;;;22.44;90.38;101864.31;5039124;28;20128;-65
2023/06/25 00:54:45;;;;;;;15.73;11.93;;;;;;;22.41;90.56;101853.81;5041357;28;20120;-63
2023/06/25 00:57:15;;;;;;;17.65;12.73;;;;;;;22.36;90.90;101850.38;5037515;28;20501;-65
2023/06/25 00:59:44;;;;;;;18.38;13.20;;;;;;;22.30;91.56;101858.88;5066853;28;20045;-65
2023/06/25 01:02:26;;;;;;;16.92;11.45;;;;;;;22.25;91.86;101856.25;5035732;28;20068;-64
2023/06/25 01:05:11;;;;;;;16.48;11.88;;;;;;;22.26;92.16;101854.28;5035195;28;20045;-64
2023/06/25 01:07:43;;;;;;;15.65;11.93;;;;;;;22.27;91.87;101842.03;5034541;28;20053;-65
2023/06/25 01:10:12;;;;;;;18.38;12.18;;;;;;;22.25;91.99;101838.78;5033299;28;20456;-63
2023/06/25 01:12:42;;;;;;;16.98;11.88;;;;;;;22.24;92.14;101842.69;5034719;28;20045;-63
2023/06/25 01:15:11;;;;;;;17.17;12.95;;;;;;;22.15;92.50;101837.06;5035260;28;20048;-65
2023/06/25 01:17:39;;;;;;;20.00;12.27;;;;;;;22.12;92.75;101832.16;5035850;28;20049;-63
2023/06/25 01:20:11;;;;;;;18.55;12.15;;;;;;;22.15;92.71;101839.03;5033608;28;20053;-63
2023/06/25 01:22:40;;;;;;;17.27;12.40;;;;;;;22.13;92.55;101831.84;5033741;28;20060;-66
2023/06/25 01:25:10;;;;;;;17.33;11.20;;;;;;;22.13;92.29;101836.59;5001895;28;20045;-64
2023/06/25 01:27:38;;;;;;;15.50;11.30;;;;;;;22.11;92.11;101834.13;5034004;28;20048;-62
2023/06/25 01:30:06;;;;;;;15.20;10.95;;;;;;;22.10;92.02;101829.72;5033089;28;20037;-62
2023/06/25 01:32:34;;;;;;;13.60;10.20;;;;;;;22.10;91.92;101831.66;5035516;28;20047;-63
2023/06/25 01:35:06;;;;;;;17.23;11.35;;;;;;;22.08;91.57;101823.69;5034922;28;20055;-62
2023/06/25 01:37:33;;;;;;;15.52;10.45;;;;;;;22.05;91.54;101824.28;5034085;28;20053;-63
2023/06/25 01:40:07;;;;;;;13.75;10.20;;;;;;;22.03;91.75;101815.50;5032557;28;20037;-67
2023/06/25 01:42:38;;;;;;;15.20;10.90;;;;;;;22.01;91.83;101823.31;5034706;28;20076;-64
2023/06/25 01:45:06;;;;;;;17.85;11.50;;;;;;;21.97;91.92;101813.19;5034267;28;20049;-62
2023/06/25 01:47:36;;;;;;;17.38;11.13;;;;;;;21.90;91.72;101806.13;5035113;28;20497;-65
2023/06/25 01:50:05;;;;;;;15.73;10.90;;;;;;;21.85;91.94;101814.59;5050820;28;20049;-63
2023/06/25 01:52:33;;;;;;;15.25;10.77;;;;;;;21.87;91.97;101812.34;5029280;28;20053;-62
2023/06/25 01:55:02;;;;;;;15.88;11.48;;;;;;;21.92;91.65;101803.03;5034097;28;20486;-63
2023/06/25 01:57:30;;;;;;;16.50;11.77;;;;;;;21.96;91.18;101804.06;5017222;28;20053;-63
2023/06/25 01:59:58;;;;;;;15.10;11.18;;;;;;;21.96;90.08;101804.06;5033619;28;20056;-62
2023/06/25 02:02:26;;;;;;;15.32;11.27;;;;;;;21.88;90.07;101808.41;5032213;28;20367;-63
2023/06/25 02:04:55;;;;;;;16.90;11.05;;;;;;;21.82;90.71;101798.59;5016803;28;20052;-63
2023/06/25 02:07:23;;;;;;;16.25;12.10;;;;;;;21.84;91.08;101801.03;5033467;28;20053;-63
2023/06/25 02:09:51;;;;;;;14.88;11.20;;;;;;;21.85;90.50;101789.63;5033477;28;20053;-64
2023/06/25 02:12:19;;;;;;;18.20;12.07;;;;;;;21.81;90.32;101787.81;5033715;28;20041;-64
2023/06/25 02:14:47;;;;;;;16.63;11.88;;;;;;;21.75;90.84;101786.34;5017123;28;20056;-63
2023/06/25 02:17:15;;;;;;;18.17;11.38;;;;;;;21.70;91.22;101779.78;5035459;28;20098;-63
2023/06/25 02:19:42;;;;;;;15.50;11.55;;;;;;;21.70;90.83;101778.97;5033767;28;20050;-64
2023/06/25 02:22:10;;;;;;;16.25;12.00;;;;;;;21.67;90.57;101772.13;5034663;28;20037;-64
2023/06/25 02:24:38;;;;;;;14.18;11.02;;;;;;;21.58;90.53;101776.81;5033004;28;20049;-63
2023/06/25 02:27:06;;;;;;;16.70;11.57;;;;;;;21.56;91.04;101772.72;5033362;28;20107;-62
2023/06/25 02:29:34;;;;;;;17.65;11.68;;;;;;;21.57;90.48;101766.03;5034666;28;20045;-63
2023/06/25 02:32:02;;;;;;;15.77;12.55;;;;;;;21.49;90.32;101762.06;5034265;28;20098;-64
2023/06/25 02:34:31;;;;;;;17.73;11.70;;;;;;;21.44;90.31;101765.00;5032744;28;20400;-65
2023/06/25 02:36:58;;;;;;;17.73;11.90;;;;;;;21.36;90.46;101758.25;5018526;28;20060;-63
2023/06/25 02:39:26;;;;;;;16.17;12.05;;;;;;;21.30;91.11;101765.06;5034266;28;20049;-63
2023/06/25 02:41:54;;;;;;;16.88;12.15;;;;;;;21.25;91.36;101759.66;5034080;28;20060;-64
2023/06/25 02:44:22;;;;;;;16.83;11.25;;;;;;;21.18;91.52;101751.78;5032961;28;20052;-64
2023/06/25 02:46:50;;;;;;;14.90;11.00;;;;;;;21.12;92.05;101753.06;5032452;28;20052;-64
2023/06/25 02:49:18;;;;;;;16.25;11.38;;;;;;;21.10;92.41;101749.78;5033118;28;20091;-64
2023/06/25 02:51:46;;;;;;;17.38;11.70;;;;;;;21.09;92.40;101748.13;5033702;28;20042;-64
2023/06/25 02:54:13;;;;;;;14.98;11.60;;;;;;;21.10;92.41;101758.09;5031967;28;20049;-67
2023/06/25 02:56:41;;;;;;;16.17;10.80;;;;;;;21.10;92.54;101747.00;5032277;28;20049;-64
2023/06/25 02:59:09;;;;;;;15.68;11.15;;;;;;;21.10;92.07;101751.75;5033009;28;20163;-65
2023/06/25 03:01:38;;;;;;;16.95;11.43;;;;;;;21.09;91.96;101753.66;5033075;28;20053;-64
2023/06/25 03:04:05;;;;;;;14.95;10.95;;;;;;;21.14;91.49;101745.25;5032531;28;20075;-63
2023/06/25 03:06:34;;;;;;;17.65;11.70;;;;;;;21.10;91.34;101744.25;5031849;28;20095;-63
2023/06/25 03:09:02;;;;;;;16.10;11.20;;;;;;;21.04;91.38;101745.50;5032338;28;20052;-65
2023/06/25 03:11:30;;;;;;;14.35;10.55;;;;;;;20.98;91.34;101750.34;5000085;28;20053;-64
2023/06/25 03:13:59;;;;;;;13.48;10.00;;;;;;;20.98;91.53;101741.22;5032290;28;20054;-64
2023/06/25 03:16:28;;;;;;;16.15;10.38;;;;;;;21.06;91.06;101748.78;5040196;28;20042;-63
2023/06/25 03:18:57;;;;;;;15.40;11.40;;;;;;;21.09;90.38;101739.81;5032278;28;20045;-63
2023/06/25 03:21:25;;;;;;;15.70;10.77;;;;;;;21.05;90.24;101749.91;5048851;28;20467;-63
2023/06/25 03:23:53;;;;;;;16.88;11.27;;;;;;;21.01;90.35;101735.06;5031977;28;20053;-63
2023/06/25 03:26:21;;;;;;;15.15;10.52;;;;;;;20.97;90.23;101737.66;5030872;28;20057;-64
2023/06/25 03:28:49;;;;;;;16.15;10.82;;;;;;;20.92;90.52;101745.25;5011508;28;20038;-61
2023/06/25 03:31:20;;;;;;;14.20;9.73;;;;;;;20.88;90.75;101734.00;4996355;28;20041;-62
2023/06/25 03:33:52;;;;;;;16.48;10.90;;;;;;;20.86;91.08;101733.50;4996291;28;20057;-64
2023/06/25 03:36:20;;;;;;;15.25;10.13;;;;;;;20.87;91.18;101734.31;5027440;28;20053;-63
2023/06/25 03:38:48;;;;;;;15.18;10.98;;;;;;;20.91;91.01;101740.84;5029084;28;20045;-64
2023/06/25 03:41:15;;;;;;;17.52;11.20;;;;;;;20.91;90.89;101740.84;5048872;28;20057;-63
2023/06/25 03:43:43;;;;;;;14.82;10.85;;;;;;;20.85;91.38;101734.63;5032070;28;20504;-62
2023/06/25 03:46:12;;;;;;;15.75;11.02;;;;;;;20.79;91.80;101739.47;5031882;28;20041;-64
2023/06/25 03:48:44;;;;;;;15.52;11.13;;;;;;;20.76;92.26;101733.75;5046823;28;20045;-65
2023/06/25 03:51:12;;;;;;;14.82;10.70;;;;;;;20.77;92.38;101727.88;5033533;28;20060;-64
2023/06/25 03:54:02;;;;;;;16.23;11.25;;;;;;;20.74;92.39;101722.97;5018082;28;20064;-64
2023/06/25 03:56:30;;;;;;;16.13;10.20;;;;;;;20.70;92.94;101723.94;5015493;28;20443;-65
2023/06/25 03:58:58;;;;;;;14.90;11.20;;;;;;;20.67;93.19;101724.56;5031858;28;20045;-64
2023/06/25 04:01:25;;;;;;;14.43;10.65;;;;;;;20.65;93.60;101722.09;5030908;28;20156;-63
2023/06/25 04:03:53;;;;;;;14.68;10.30;;;;;;;20.63;93.87;101725.16;5032488;28;20050;-63
2023/06/25 04:06:21;;;;;;;14.10;10.20;;;;;;;20.63;93.63;101730.72;5035171;28;20072;-64
2023/06/25 04:08:49;;;;;;;14.75;10.35;;;;;;;20.65;93.12;101727.63;5034619;28;20090;-62
2023/06/25 04:11:17;;;;;;;14.30;10.48;;;;;;;20.65;93.15;101733.16;5030572;28;20448;-62
2023/06/25 04:13:46;;;;;;;14.63;11.15;;;;;;;20.63;93.16;101730.72;5029833;28;20102;-65
2023/06/25 04:16:14;;;;;;;14.98;10.55;;;;;;;20.67;93.22;101730.09;5034830;28;20045;-64
2023/06/25 04:18:42;;;;;;;17.98;10.57;;;;;;;20.70;92.91;101732.22;5035339;28;20045;-62
2023/06/25 04:21:10;;;;;;;19.58;11.13;;;;;;;20.76;92.31;101731.00;5033211;28;20494;-65
2023/06/25 04:23:37;;;;;;;14.07;9.60;;;;;;;20.81;91.44;101730.84;5035007;28;20079;-62
2023/06/25 04:26:05;;;;;;;15.43;10.02;;;;;;;20.80;91.20;101735.56;5015393;28;20053;-62
2023/06/25 04:28:33;;;;;;;15.40;9.68;;;;;;;20.83;90.66;101729.41;5015210;28;20041;-62
2023/06/25 04:31:02;;;;;;;18.35;10.48;;;;;;;20.85;90.41;101731.84;5025928;28;20055;-62
2023/06/25 04:33:30;;;;;;;16.58;10.57;;;;;;;20.87;89.76;101734.31;5035252;28;20061;-63
2023/06/25 04:35:57;;;;;;;13.20;9.13;;;;;;;20.89;90.79;101727.31;5036169;28;20045;-63
2023/06/25 04:38:25;;;;;;;14.27;8.80;;;;;;;21.01;90.08;101729.50;5034835;28;20057;-63
2023/06/25 04:40:54;;;;;;;14.57;9.32;;;;;;;21.11;88.87;101718.16;5034171;28;20049;-65
2023/06/25 04:43:22;;;;;;;13.55;8.90;;;;;;;21.18;88.62;101723.25;5026890;28;20038;-64
2023/06/25 04:45:50;;;;;;;15.85;9.43;;;;;;;21.23;87.83;101726.69;5034453;28;20042;-67
2023/06/25 04:48:18;;;;;;;12.07;8.40;;;;;;;21.27;87.59;101733.25;5034879;28;20050;-63
2023/06/25 04:50:46;;;;;;;14.43;8.93;;;;;;;21.33;86.70;101727.56;5036915;28;20128;-65
2023/06/25 04:53:14;;;;;;;15.10;8.75;;;;;;;21.34;85.37;101726.44;5036767;28;20046;-63
2023/06/25 04:55:41;;;;;;;14.18;9.85;;;;;;;21.33;84.88;101724.78;5070456;28;20493;-65
2023/06/25 04:58:09;;;;;;;17.27;9.63;;;;;;;21.29;85.24;101730.16;5045241;28;20046;-64
2023/06/25 05:00:37;;;;;;;13.07;9.00;;;;;;;21.28;85.33;101722.97;5040647;28;20073;-67
2023/06/25 05:03:04;;;;;;;18.90;10.38;;;;;;;21.27;84.61;101722.16;5036319;28;20111;-64
2023/06/25 05:05:32;;;;;;;12.85;9.35;;;;;;;21.24;85.00;101728.34;5038813;28;20049;-65
2023/06/25 05:08:00;;;;;;;13.40;9.38;;;;;;;21.27;85.16;101724.13;5046319;28;20072;-63
2023/06/25 05:10:27;;;;;;;11.45;8.50;;;;;;;21.32;84.98;101715.66;5046345;28;20101;-64
2023/06/25 05:12:55;;;;;;;14.00;8.90;;;;;;;21.39;84.65;101726.28;5038541;28;20081;-66
2023/06/25 05:15:24;;;;;;;12.98;9.02;;;;;;;21.42;83.65;101728.44;4690409;28;10000927;-65
2023/06/25 05:17:52;;;;;;;14.25;10.07;;;;;;;21.46;83.10;101723.91;5004636;28;20068;-65
2023/06/25 05:20:20;;;;;;;13.05;8.65;;;;;;;21.47;82.43;101715.25;5031837;28;20069;-64
2023/06/25 05:22:48;;;;;;;13.90;9.60;;;;;;;21.49;82.06;101717.72;5031876;28;20460;-64
2023/06/25 05:25:16;;;;;;;21.45;10.43;;;;;;;21.50;81.68;101719.34;5063080;28;20525;-65
2023/06/25 05:27:44;;;;;;;14.95;9.70;;;;;;;21.49;81.83;101732.38;5014088;28;20092;-64
2023/06/25 05:30:11;;;;;;;13.93;9.93;;;;;;;21.50;81.43;101719.34;5031969;28;20481;-65
2023/06/25 05:32:39;;;;;;;16.05;11.20;;;;;;;21.52;81.14;101722.59;5030175;28;20191;-66
2023/06/25 05:35:07;;;;;;;12.85;9.05;;;;;;;21.52;81.37;101719.03;5031601;28;20103;-65
2023/06/25 05:37:35;;;;;;;15.07;9.85;;;;;;;21.54;81.63;101722.31;5030875;28;20111;-64
2023/06/25 05:40:03;;;;;;;14.85;9.13;;;;;;;21.55;81.44;101726.69;5029958;28;20124;-65
2023/06/25 05:42:31;;;;;;;15.98;10.40;;;;;;;21.58;81.07;101715.78;5030865;28;20077;-64
2023/06/25 05:44:59;;;;;;;14.95;10.02;;;;;;;21.62;80.78;101719.56;5031039;28;20052;-65
2023/06/25 05:47:26;;;;;;;14.98;9.50;;;;;;;21.64;80.47;101724.78;5030186;28;20077;-64
2023/06/25 05:49:54;;;;;;;15.75;9.68;;;;;;;21.66;80.16;101716.94;5031626;28;20079;-65
2023/06/25 05:52:22;;;;;;;15.52;10.40;;;;;;;21.69;79.84;101717.16;5013290;28;20084;-65
2023/06/25 05:54:49;;;;;;;13.88;9.73;;;;;;;21.72;78.97;101712.06;5030849;28;20095;-65
2023/06/25 05:57:17;;;;;;;15.15;9.43;;;;;;;21.76;78.89;101713.06;5028904;28;20132;-65
2023/06/25 05:59:45;;;;;;;13.50;9.70;;;;;;;21.77;78.83;101709.97;5029839;28;20805;-65
2023/06/25 06:02:12;;;;;;;13.63;9.18;;;;;;;21.80;78.62;101705.75;5030960;28;20131;-65
2023/06/25 06:04:40;;;;;;;18.85;11.02;;;;;;;21.81;78.38;101712.91;5013122;28;20045;-63
2023/06/25 06:07:08;;;;;;;14.43;10.65;;;;;;;21.81;76.99;101707.38;5030897;28;20061;-65
2023/06/25 06:09:36;;;;;;;17.48;10.70;;;;;;;21.80;77.51;101702.97;5028229;28;20050;-65
2023/06/25 06:12:04;;;;;;;18.75;10.65;;;;;;;21.83;77.44;101694.81;5031348;28;20052;-66
2023/06/25 06:14:33;;;;;;;13.45;8.60;;;;;;;21.88;77.68;101702.97;5029357;28;20060;-66
2023/06/25 06:17:01;;;;;;;18.52;12.25;;;;;;;21.93;76.60;101702.00;5030051;28;20041;-65
2023/06/25 06:19:28;;;;;;;17.45;10.50;;;;;;;21.95;76.79;101696.94;5027993;28;20080;-67
2023/06/25 06:21:56;;;;;;;15.43;10.27;;;;;;;21.98;76.83;101701.03;5030440;28;20188;-66
2023/06/25 06:24:24;;;;;;;18.33;10.88;;;;;;;21.99;76.91;101700.72;5024624;28;20557;-63
2023/06/25 06:26:51;;;;;;;15.05;9.27;;;;;;;22.01;76.92;101697.63;5028769;28;20049;-65
2023/06/25 06:29:19;;;;;;;12.98;8.68;;;;;;;22.04;77.07;101700.56;5030012;28;20060;-69
2023/06/25 06:31:47;;;;;;;13.63;9.30;;;;;;;22.07;76.56;101705.44;5030488;28;20705;-65
2023/06/25 06:34:14;;;;;;;14.77;10.40;;;;;;;22.09;76.08;101703.16;5030369;28;20137;-65
2023/06/25 06:36:42;;;;;;;73.93;22.98;;;;;;;22.12;75.89;101705.28;5030342;28;20081;-65
2023/06/25 06:39:10;;;;;;;37.42;16.20;;;;;;;22.16;75.16;101701.88;5007526;28;20146;-66
2023/06/25 06:41:37;;;;;;;20.45;11.73;;;;;;;22.17;74.72;101698.75;5026049;28;20057;-64
2023/06/25 06:44:16;;;;;;;16.42;10.65;;;;;;;22.20;74.65;101702.84;5030802;28;20498;-63
2023/06/25 06:46:44;;;;;;;20.02;12.43;;;;;;;22.22;73.80;101695.03;5028829;28;20045;-64
2023/06/25 06:49:12;;;;;;;18.08;10.13;;;;;;;22.25;74.74;101692.44;5029177;28;20049;-66
2023/06/25 06:51:41;;;;;;;21.88;10.75;;;;;;;22.30;74.73;101691.47;5061543;28;20132;-64
2023/06/25 06:54:09;;;;;;;18.38;11.52;;;;;;;22.32;74.24;101692.78;5029573;28;20507;-65
2023/06/25 06:56:38;;;;;;;22.45;11.85;;;;;;;22.33;73.97;101690.81;5030590;28;20052;-66
2023/06/25 06:59:06;;;;;;;20.50;11.23;;;;;;;22.34;74.38;101692.44;5012619;28;20136;-66
2023/06/25 07:01:34;;;;;;;18.65;11.07;;;;;;;22.37;74.46;101688.19;5030099;28;20053;-65
2023/06/25 07:04:02;;;;;;;19.27;11.27;;;;;;;22.39;73.57;101695.03;5029524;28;20060;-64
2023/06/25 07:06:29;;;;;;;19.83;11.23;;;;;;;22.43;73.47;101692.44;5029206;28;20137;-64
2023/06/25 07:08:57;;;;;;;20.35;11.75;;;;;;;22.45;72.65;101688.19;5030486;28;20080;-65
2023/06/25 07:11:25;;;;;;;18.73;11.55;;;;;;;22.47;72.67;101685.91;5030120;28;20406;-65
2023/06/25 07:13:53;;;;;;;22.10;13.85;;;;;;;22.49;72.29;101685.59;5030434;28;20507;-65
2023/06/25 07:16:20;;;;;;;16.42;11.52;;;;;;;22.50;70.32;101684.44;5030695;28;20120;-65
2023/06/25 07:18:48;;;;;;;15.38;10.18;;;;;;;22.52;71.01;101696.03;5030440;28;20068;-66
2023/06/25 07:21:16;;;;;;;15.48;10.40;;;;;;;22.55;70.35;101695.38;5029049;28;20165;-66
2023/06/25 07:23:43;;;;;;;17.77;11.15;;;;;;;22.58;70.95;101686.38;5024200;28;20049;-65
2023/06/25 07:26:11;;;;;;;16.85;10.55;;;;;;;22.62;71.52;101686.53;5029782;28;20434;-63
2023/06/25 07:28:39;;;;;;;18.17;10.75;;;;;;;22.66;71.93;101693.09;5030950;28;20132;-63
2023/06/25 07:31:06;;;;;;;19.48;13.65;;;;;;;22.72;71.67;101691.75;5031041;28;20407;-63
2023/06/25 07:33:34;;;;;;;18.80;13.63;;;;;;;22.77;72.25;101686.00;5033127;28;20060;-62
2023/06/25 07:36:02;;;;;;;19.20;13.75;;;;;;;22.82;72.18;101685.03;5033293;28;20502;-62
2023/06/25 07:38:30;;;;;;;20.52;13.48;;;;;;;22.83;71.90;101690.25;5032921;28;20053;-62
2023/06/25 07:40:57;;;;;;;16.45;11.77;;;;;;;22.84;72.01;101677.19;5033402;28;20042;-63
2023/06/25 07:43:25;;;;;;;21.55;11.80;;;;;;;22.83;70.85;101681.94;5033282;28;20049;-63
2023/06/25 07:45:56;;;;;;;18.77;11.50;;;;;;;22.85;68.70;101679.63;5033635;28;20564;-63
2023/06/25 07:48:24;;;;;;;17.25;11.00;;;;;;;22.87;67.41;101674.53;5032365;28;20081;-63
2023/06/25 07:50:52;;;;;;;14.82;10.57;;;;;;;22.90;67.73;101673.91;5033093;28;20045;-64
2023/06/25 07:53:20;;;;;;;16.38;10.05;;;;;;;22.95;66.51;101667.34;5033120;28;20072;-63
2023/06/25 07:55:49;;;;;;;17.25;11.52;;;;;;;22.97;64.65;101676.97;5032143;28;20069;-64
2023/06/25 07:58:29;;;;;;;17.95;9.82;;;;;;;23.02;65.96;101678.81;5033357;28;20060;-64
2023/06/25 08:00:57;;;;;;;15.32;9.88;;;;;;;23.04;65.49;101681.22;5032131;28;20490;-64
2023/06/25 08:03:25;;;;;;;17.05;11.75;;;;;;;23.07;65.68;101675.03;5032664;28;20057;-62
2023/06/25 08:05:53;;;;;;;17.52;11.35;;;;;;;23.11;66.23;101670.41;5033385;28;20049;-62
2023/06/25 08:08:20;;;;;;;17.00;10.65;;;;;;;23.15;66.05;101669.41;5032172;28;20085;-64
2023/06/25 08:10:51;;;;;;;17.58;10.52;;;;;;;23.21;66.39;101670.06;5033378;28;20084;-64
2023/06/25 08:13:20;;;;;;;16.35;11.32;;;;;;;23.24;66.05;101663.84;5032839;28;20049;-63
2023/06/25 08:15:48;;;;;;;18.00;10.77;;;;;;;23.25;65.97;101659.88;5032362;28;20549;-63
2023/06/25 08:18:16;;;;;;;17.73;11.73;;;;;;;23.28;66.03;101663.97;5031955;28;20409;-63
2023/06/25 08:20:46;;;;;;;15.15;11.27;;;;;;;23.31;66.54;101664.13;5032881;28;20128;-61
2023/06/25 08:23:13;;;;;;;15.57;10.88;;;;;;;23.35;66.51;101651.16;5032864;28;20564;-64
2023/06/25 08:25:41;;;;;;;15.38;10.85;;;;;;;23.42;66.41;101661.78;5033008;28;20440;-64
2023/06/25 08:28:09;;;;;;;15.88;10.63;;;;;;;23.45;66.58;101651.94;5031184;28;20405;-64
2023/06/25 08:30:37;;;;;;;16.48;10.77;;;;;;;23.49;66.74;101655.69;5033041;28;20049;-62
2023/06/25 08:33:04;;;;;;;15.05;10.02;;;;;;;23.51;67.06;101656.19;5032700;28;20077;-64
2023/06/25 08:35:32;;;;;;;14.98;9.63;;;;;;;23.53;67.27;101648.31;5031507;28;20099;-64
2023/06/25 08:38:00;;;;;;;14.60;9.95;;;;;;;23.54;67.15;101650.75;5033109;28;20053;-63
2023/06/25 08:40:30;;;;;;;15.02;10.45;;;;;;;23.58;66.85;101645.34;5032485;28;20153;-63
2023/06/25 08:42:59;;;;;;;16.55;9.32;;;;;;;23.63;66.91;101647.91;5048078;28;20128;-64
2023/06/25 08:45:26;;;;;;;14.98;9.90;;;;;;;23.66;66.53;101640.84;5031236;28;20488;-64
2023/06/25 08:47:55;;;;;;;14.15;9.30;;;;;;;23.69;66.28;101646.56;5053692;28;20077;-62
2023/06/25 08:50:24;;;;;;;13.07;8.35;;;;;;;23.71;64.99;101632.31;5046487;28;20042;-63
2023/06/25 08:52:52;;;;;;;12.68;8.02;;;;;;;23.73;65.19;101630.00;5049321;28;20136;-64
2023/06/25 08:55:22;;;;;;;17.52;8.93;;;;;;;23.77;65.73;101639.34;5014686;28;20073;-63
2023/06/25 08:57:50;;;;;;;13.60;7.85;;;;;;;23.79;66.56;101640.63;5047754;28;20100;-64
2023/06/25 09:00:18;;;;;;;11.90;7.90;;;;;;;23.83;66.19;101634.38;5048170;28;20419;-63
2023/06/25 09:02:45;;;;;;;12.15;7.40;;;;;;;23.91;65.86;101636.28;5016684;28;20222;-65
2023/06/25 09:05:24;;;;;;;11.15;7.10;;;;;;;24.00;64.33;101639.81;5026717;28;20053;-63
2023/06/25 09:07:51;;;;;;;13.23;6.45;;;;;;;24.05;63.20;101636.81;5034823;28;20041;-65
2023/06/25 09:10:20;;;;;;;13.27;7.07;;;;;;;24.13;62.43;101644.31;5018752;28;20041;-63
2023/06/25 09:12:49;;;;;;;12.27;6.20;;;;;;;24.21;62.14;101639.81;5023564;28;20057;-62
2023/06/25 09:15:26;;;;;;;15.63;6.40;;;;;;;24.27;62.24;101634.84;5042577;28;20105;-61
2023/06/25 09:17:57;;;;;;;11.52;6.32;;;;;;;24.27;62.41;101638.47;5038216;28;20048;-61
2023/06/25 09:20:25;;;;;;;10.23;6.35;;;;;;;24.27;62.89;101640.41;5036297;28;20053;-64
2023/06/25 09:22:55;;;;;;;12.15;5.72;;;;;;;24.29;62.83;101635.31;5056655;28;20092;-65
2023/06/25 09:25:30;;;;;;;10.70;5.80;;;;;;;24.30;63.40;101625.81;5040237;28;20045;-62
2023/06/25 09:28:02;;;;;;;10.00;6.25;;;;;;;24.32;62.39;101626.28;5039057;28;20053;-64
2023/06/25 09:30:29;;;;;;;10.63;6.30;;;;;;;24.36;61.72;101630.00;5035311;28;20136;-62
2023/06/25 09:32:57;;;;;;;11.98;6.05;;;;;;;24.39;62.01;101629.31;5034376;28;20057;-64
2023/06/25 09:35:28;;;;;;;8.75;5.35;;;;;;;24.42;62.33;101629.47;5034167;28;20045;-62
2023/06/25 09:37:56;;;;;;;8.50;5.32;;;;;;;24.47;61.58;101625.69;5035741;28;20050;-65
2023/06/25 09:40:24;;;;;;;8.05;5.38;;;;;;;24.53;60.98;101623.47;5034342;28;20143;-64
2023/06/25 09:42:56;;;;;;;11.02;5.20;;;;;;;24.57;61.05;101625.22;5034909;28;20463;-64
2023/06/25 09:45:25;;;;;;;7.80;4.95;;;;;;;24.62;61.88;101621.41;5035265;28;20083;-62
2023/06/25 09:47:55;;;;;;;8.98;5.30;;;;;;;24.69;61.36;101615.28;5035334;28;20045;-63
2023/06/25 09:50:35;;;;;;;8.40;5.20;;;;;;;24.72;61.33;101617.38;5033573;28;20050;-62
2023/06/25 09:53:06;;;;;;;9.82;6.20;;;;;;;24.80;59.99;101599.75;5033982;28;20470;-64
2023/06/25 09:55:36;;;;;;;8.30;5.53;;;;;;;24.89;60.03;101603.22;5034169;28;20132;-62
2023/06/25 09:58:04;;;;;;;9.70;5.43;;;;;;;24.96;59.69;101608.22;5034977;28;20107;-63
2023/06/25 10:00:34;;;;;;;8.18;5.43;;;;;;;25.00;60.00;101600.81;5034267;28;20051;-63
2023/06/25 10:03:03;;;;;;;8.20;5.45;;;;;;;25.00;60.07;101609.97;5034776;28;20072;-63
2023/06/25 10:05:32;;;;;;;10.60;5.63;;;;;;;25.02;60.04;101604.88;5034664;28;20409;-63
2023/06/25 10:08:01;;;;;;;8.68;5.53;;;;;;;25.08;59.74;101602.66;5034392;28;20049;-62
2023/06/25 10:10:29;;;;;;;9.80;5.80;;;;;;;25.12;60.11;101602.78;5034853;28;20045;-62
2023/06/25 10:12:57;;;;;;;7.53;5.00;;;;;;;25.11;60.47;101593.63;5033424;28;20135;-64
2023/06/25 10:15:29;;;;;;;10.90;5.38;;;;;;;25.14;60.22;101587.34;5032940;28;20099;-63
2023/06/25 10:17:59;;;;;;;9.75;5.20;;;;;;;25.20;59.49;101587.94;5034810;28;20057;-63
2023/06/25 10:20:28;;;;;;;8.70;5.25;;;;;;;25.26;59.71;101583.75;5033572;28;20088;-64
2023/06/25 10:23:06;;;;;;;8.35;5.10;;;;;;;25.31;59.38;101583.53;5033824;28;20053;-64
2023/06/25 10:25:36;;;;;;;8.35;5.20;;;;;;;25.38;58.74;101575.38;5035253;28;20072;-64
2023/06/25 10:28:14;;;;;;;9.60;5.22;;;;;;;25.41;58.40;101580.25;5033583;28;20103;-64
2023/06/25 10:30:50;;;;;;;9.52;5.35;;;;;;;25.45;57.36;101575.59;5033732;28;20045;-63
2023/06/25 10:33:19;;;;;;;8.40;5.32;;;;;;;25.50;56.06;101572.56;5034461;28;20052;-64
2023/06/25 10:35:49;;;;;;;9.13;5.15;;;;;;;25.51;56.10;101571.38;5034005;28;20053;-62
2023/06/25 10:38:17;;;;;;;8.63;5.05;;;;;;;25.58;55.72;101573.59;5033869;28;20060;-63
2023/06/25 10:40:46;;;;;;;8.32;4.80;;;;;;;25.66;55.03;101557.84;5034135;28;20108;-62
2023/06/25 10:43:19;;;;;;;9.70;5.28;;;;;;;25.68;55.21;101558.31;5033879;28;20402;-65
2023/06/25 10:45:51;;;;;;;7.88;5.20;;;;;;;25.74;55.22;101559.72;5034067;28;20128;-64
2023/06/25 10:48:20;;;;;;;8.48;4.75;;;;;;;25.81;54.57;101551.56;5034580;28;20061;-63
2023/06/25 10:50:48;;;;;;;6.93;4.38;;;;;;;25.85;55.68;101558.03;5034161;28;20045;-62
2023/06/25 10:53:18;;;;;;;8.15;4.80;;;;;;;25.91;53.96;101556.66;5032790;28;20073;-64
2023/06/25 10:55:47;;;;;;;7.57;4.60;;;;;;;25.98;51.71;101553.25;5034588;28;20045;-62
2023/06/25 10:58:20;;;;;;;11.02;5.22;;;;;;;26.04;50.93;101549.03;5032941;28;20450;-62
2023/06/25 11:00:55;;;;;;;9.55;4.78;;;;;;;26.08;50.54;101549.13;5034318;28;20097;-63
2023/06/25 11:03:24;;;;;;;8.65;4.78;;;;;;;26.10;50.14;101547.59;5033610;28;20045;-63
2023/06/25 11:05:51;;;;;;;7.82;4.90;;;;;;;26.12;49.98;101544.44;5033868;28;20517;-63
2023/06/25 11:08:24;;;;;;;8.43;5.32;;;;;;;26.13;50.51;101543.28;5033962;28;20091;-64
2023/06/25 11:10:52;;;;;;;8.13;5.20;;;;;;;26.16;50.13;101545.34;5033811;28;20493;-64
2023/06/25 11:13:20;;;;;;;8.88;5.15;;;;;;;26.21;49.25;101547.88;5029872;28;20567;-62
2023/06/25 11:15:48;;;;;;;8.05;5.00;;;;;;;26.25;49.07;101534.84;5025926;28;20116;-63
2023/06/25 11:18:15;;;;;;;8.73;5.15;;;;;;;26.30;49.31;101531.78;5029344;28;20045;-64
2023/06/25 11:20:44;;;;;;;7.90;5.35;;;;;;;26.35;48.48;101530.72;5032545;28;20045;-64
2023/06/25 11:23:14;;;;;;;7.32;4.53;;;;;;;26.42;48.38;101527.28;5033640;28;20520;-64